Main page
METAR-TAF:

METAR-TAF

Airports :

Nawabshah Airport

Nawabshah, Pakistan

latitude: 26-15N, longitude: 068-22E, elevation: 37 m

Current weather observation

The report was made 1 hour and 1 minutes ago, at 21:00 UTC
Calm wind
Temperature 25°C
Humidity 54%
Pressure 1011 hPa
Visibility: 4000 m
haze

METAR: OPNH 112100Z 00000KT 4000 HZ NSC 25/15 Q1011 NOSIG

Time: 03:01 (22:01 UTC)

Forecast

The report was made 6 hours and 1 minutes ago, at 16:00 UTC
Forecast valid from 11 at 18 UTC to 12 at 24 UTC
Wind 3 kt from variable directions
Visibility: 4000 m
haze
Temporary
from 12 at 01 UTC to 12 at 05 UTC
Wind 3 kt from variable directions
Visibility: 3000 m
smoke
From UTC
Wind 10 kt from the South
Visibility: 5000 m
haze
From UTC
Wind 5 kt from the South
Visibility: 4000 m
haze

TAF: OPNH 111600Z 1118/1224 VRB03KT 4000 HZ NSC TEMPO 1201/1205 VRB03KT 3000 FU NSC FM 120700Z 18010KT 5000 HZ NSC FM 121600Z 18005KT 4000 HZ NSC

Weather observations and forecasts of more than 4000 airports (METAR and TAF reports).

The available stations are represented by yellow and red dots on the map.

Hover mouse over dot to see the name of the station.

Then click to see weather observations and forecasts.

To change the map : click on the green buttons with a black cross to zoom in, on the green button with a dash to zoom out, or on the green arrows for adjacent maps.


METAR-TAF: